sensor_id;sensor_type;location;lat;lon;timestamp;P1;durP1;ratioP1;P2;durP2;ratioP2
78610;SDS011;67932;50.474;4.436;2023-02-28T00:03:17;5.07;;;4.07;;
78610;SDS011;67932;50.474;4.436;2023-02-28T00:05:43;7.07;;;4.70;;
78610;SDS011;67932;50.474;4.436;2023-02-28T00:10:35;9.98;;;4.88;;
78610;SDS011;67932;50.474;4.436;2023-02-28T00:13:03;8.73;;;5.18;;
78610;SDS011;67932;50.474;4.436;2023-02-28T00:15:29;5.88;;;4.90;;
78610;SDS011;67932;50.474;4.436;2023-02-28T00:17:56;7.18;;;4.45;;
78610;SDS011;67932;50.474;4.436;2023-02-28T00:20:22;8.45;;;5.25;;
78610;SDS011;67932;50.474;4.436;2023-02-28T00:22:49;8.15;;;4.88;;
78610;SDS011;67932;50.474;4.436;2023-02-28T00:25:20;9.32;;;5.45;;
78610;SDS011;67932;50.474;4.436;2023-02-28T00:27:46;10.02;;;5.47;;
78610;SDS011;67932;50.474;4.436;2023-02-28T00:30:20;7.32;;;4.90;;
78610;SDS011;67932;50.474;4.436;2023-02-28T00:32:46;8.80;;;4.95;;
78610;SDS011;67932;50.474;4.436;2023-02-28T00:35:12;6.50;;;4.45;;
78610;SDS011;67932;50.474;4.436;2023-02-28T00:37:39;9.00;;;4.68;;
78610;SDS011;67932;50.474;4.436;2023-02-28T00:40:05;6.65;;;4.53;;
78610;SDS011;67932;50.474;4.436;2023-02-28T00:42:35;7.20;;;4.32;;
78610;SDS011;67932;50.474;4.436;2023-02-28T00:45:01;9.18;;;4.85;;
78610;SDS011;67932;50.474;4.436;2023-02-28T00:47:29;7.43;;;4.70;;
78610;SDS011;67932;50.474;4.436;2023-02-28T00:52:21;7.63;;;4.35;;
78610;SDS011;67932;50.474;4.436;2023-02-28T00:54:47;7.25;;;4.55;;
78610;SDS011;67932;50.474;4.436;2023-02-28T00:59:39;6.00;;;4.15;;
78610;SDS011;67932;50.474;4.436;2023-02-28T01:04:31;6.60;;;3.83;;
78610;SDS011;67932;50.474;4.436;2023-02-28T01:09:23;6.63;;;3.80;;
78610;SDS011;67932;50.474;4.436;2023-02-28T01:14:15;6.85;;;4.40;;
78610;SDS011;67932;50.474;4.436;2023-02-28T01:16:42;7.72;;;4.40;;
78610;SDS011;67932;50.474;4.436;2023-02-28T01:19:08;7.82;;;3.92;;
78610;SDS011;67932;50.474;4.436;2023-02-28T01:24:00;6.80;;;3.88;;
78610;SDS011;67932;50.474;4.436;2023-02-28T01:26:26;6.70;;;4.32;;
78610;SDS011;67932;50.474;4.436;2023-02-28T01:31:19;8.05;;;4.50;;
78610;SDS011;67932;50.474;4.436;2023-02-28T01:33:45;6.22;;;4.47;;
78610;SDS011;67932;50.474;4.436;2023-02-28T01:36:13;6.00;;;3.90;;
78610;SDS011;67932;50.474;4.436;2023-02-28T01:38:40;8.80;;;4.28;;
78610;SDS011;67932;50.474;4.436;2023-02-28T01:41:06;5.43;;;4.20;;
78610;SDS011;67932;50.474;4.436;2023-02-28T01:43:52;5.80;;;4.10;;
78610;SDS011;67932;50.474;4.436;2023-02-28T01:46:18;7.70;;;4.38;;
78610;SDS011;67932;50.474;4.436;2023-02-28T01:48:46;7.45;;;4.82;;
78610;SDS011;67932;50.474;4.436;2023-02-28T01:51:14;6.90;;;4.35;;
78610;SDS011;67932;50.474;4.436;2023-02-28T01:53:45;7.10;;;4.50;;
78610;SDS011;67932;50.474;4.436;2023-02-28T01:56:13;7.05;;;4.93;;
78610;SDS011;67932;50.474;4.436;2023-02-28T01:58:46;7.53;;;4.45;;
78610;SDS011;67932;50.474;4.436;2023-02-28T02:01:12;7.50;;;4.35;;
78610;SDS011;67932;50.474;4.436;2023-02-28T02:03:47;8.60;;;4.57;;
78610;SDS011;67932;50.474;4.436;2023-02-28T02:06:13;7.82;;;4.97;;
78610;SDS011;67932;50.474;4.436;2023-02-28T02:11:07;7.40;;;4.88;;
78610;SDS011;67932;50.474;4.436;2023-02-28T02:21:51;9.52;;;4.47;;
78610;SDS011;67932;50.474;4.436;2023-02-28T02:27:23;6.20;;;4.32;;
78610;SDS011;67932;50.474;4.436;2023-02-28T02:37:52;9.40;;;4.25;;
78610;SDS011;67932;50.474;4.436;2023-02-28T02:40:23;5.90;;;4.20;;
78610;SDS011;67932;50.474;4.436;2023-02-28T02:47:43;5.78;;;3.78;;
78610;SDS011;67932;50.474;4.436;2023-02-28T02:50:11;9.05;;;4.25;;
78610;SDS011;67932;50.474;4.436;2023-02-28T02:52:40;10.35;;;4.45;;
78610;SDS011;67932;50.474;4.436;2023-02-28T02:55:08;5.25;;;4.13;;
78610;SDS011;67932;50.474;4.436;2023-02-28T02:57:38;6.43;;;4.88;;
78610;SDS011;67932;50.474;4.436;2023-02-28T03:00:06;7.13;;;4.05;;
78610;SDS011;67932;50.474;4.436;2023-02-28T03:02:34;7.13;;;4.03;;
78610;SDS011;67932;50.474;4.436;2023-02-28T03:05:04;8.63;;;4.80;;
78610;SDS011;67932;50.474;4.436;2023-02-28T03:07:32;9.45;;;4.63;;
78610;SDS011;67932;50.474;4.436;2023-02-28T03:12:33;5.85;;;3.63;;
78610;SDS011;67932;50.474;4.436;2023-02-28T03:15:13;5.97;;;4.28;;
78610;SDS011;67932;50.474;4.436;2023-02-28T03:21:05;9.93;;;5.18;;
78610;SDS011;67932;50.474;4.436;2023-02-28T03:23:10;9.23;;;4.82;;
78610;SDS011;67932;50.474;4.436;2023-02-28T03:28:31;7.53;;;4.63;;
78610;SDS011;67932;50.474;4.436;2023-02-28T03:30:56;7.47;;;4.30;;
78610;SDS011;67932;50.474;4.436;2023-02-28T03:33:31;7.70;;;4.95;;
78610;SDS011;67932;50.474;4.436;2023-02-28T03:35:59;9.07;;;5.38;;
78610;SDS011;67932;50.474;4.436;2023-02-28T03:38:31;7.50;;;5.78;;
78610;SDS011;67932;50.474;4.436;2023-02-28T03:41:00;7.13;;;5.10;;
78610;SDS011;67932;50.474;4.436;2023-02-28T03:43:30;6.95;;;4.82;;
78610;SDS011;67932;50.474;4.436;2023-02-28T03:45:58;8.55;;;5.43;;
78610;SDS011;67932;50.474;4.436;2023-02-28T03:48:45;7.43;;;4.70;;
78610;SDS011;67932;50.474;4.436;2023-02-28T03:51:17;8.25;;;5.45;;
78610;SDS011;67932;50.474;4.436;2023-02-28T03:53:49;7.90;;;5.22;;
78610;SDS011;67932;50.474;4.436;2023-02-28T03:56:24;9.93;;;5.72;;
78610;SDS011;67932;50.474;4.436;2023-02-28T04:01:38;7.97;;;5.85;;
78610;SDS011;67932;50.474;4.436;2023-02-28T04:04:06;6.35;;;4.80;;
78610;SDS011;67932;50.474;4.436;2023-02-28T04:06:33;7.82;;;4.97;;
78610;SDS011;67932;50.474;4.436;2023-02-28T04:08:59;8.32;;;4.88;;
78610;SDS011;67932;50.474;4.436;2023-02-28T04:13:51;11.10;;;5.65;;
78610;SDS011;67932;50.474;4.436;2023-02-28T04:16:17;12.10;;;5.63;;
78610;SDS011;67932;50.474;4.436;2023-02-28T04:21:09;10.70;;;5.63;;
78610;SDS011;67932;50.474;4.436;2023-02-28T04:23:36;8.10;;;5.55;;
78610;SDS011;67932;50.474;4.436;2023-02-28T04:26:02;10.00;;;5.93;;
78610;SDS011;67932;50.474;4.436;2023-02-28T04:28:29;11.35;;;5.85;;
78610;SDS011;67932;50.474;4.436;2023-02-28T04:33:21;9.13;;;5.18;;
78610;SDS011;67932;50.474;4.436;2023-02-28T04:35:48;8.70;;;5.07;;
78610;SDS011;67932;50.474;4.436;2023-02-28T04:38:14;9.07;;;5.47;;
78610;SDS011;67932;50.474;4.436;2023-02-28T04:40:40;9.75;;;5.70;;
78610;SDS011;67932;50.474;4.436;2023-02-28T04:43:06;7.13;;;5.15;;
78610;SDS011;67932;50.474;4.436;2023-02-28T04:45:32;7.43;;;5.63;;
78610;SDS011;67932;50.474;4.436;2023-02-28T04:47:58;9.18;;;5.63;;
78610;SDS011;67932;50.474;4.436;2023-02-28T04:50:24;8.25;;;5.95;;
78610;SDS011;67932;50.474;4.436;2023-02-28T04:55:16;11.38;;;5.68;;
78610;SDS011;67932;50.474;4.436;2023-02-28T04:57:43;11.18;;;5.70;;
78610;SDS011;67932;50.474;4.436;2023-02-28T05:00:09;10.15;;;5.80;;
78610;SDS011;67932;50.474;4.436;2023-02-28T05:02:36;8.98;;;6.20;;
78610;SDS011;67932;50.474;4.436;2023-02-28T05:05:04;7.93;;;5.68;;
78610;SDS011;67932;50.474;4.436;2023-02-28T05:09:56;9.88;;;5.60;;
78610;SDS011;67932;50.474;4.436;2023-02-28T05:12:23;9.52;;;6.13;;
78610;SDS011;67932;50.474;4.436;2023-02-28T05:17:15;9.00;;;5.63;;
78610;SDS011;67932;50.474;4.436;2023-02-28T05:19:42;10.85;;;5.50;;
78610;SDS011;67932;50.474;4.436;2023-02-28T05:22:12;11.10;;;5.93;;
78610;SDS011;67932;50.474;4.436;2023-02-28T05:24:40;8.60;;;5.90;;
78610;SDS011;67932;50.474;4.436;2023-02-28T05:27:07;9.75;;;6.15;;
78610;SDS011;67932;50.474;4.436;2023-02-28T05:29:33;9.10;;;5.75;;
78610;SDS011;67932;50.474;4.436;2023-02-28T05:32:06;12.13;;;6.20;;
78610;SDS011;67932;50.474;4.436;2023-02-28T05:36:58;8.48;;;5.05;;
78610;SDS011;67932;50.474;4.436;2023-02-28T05:41:50;8.90;;;5.45;;
78610;SDS011;67932;50.474;4.436;2023-02-28T05:44:16;9.50;;;6.22;;
78610;SDS011;67932;50.474;4.436;2023-02-28T05:46:42;8.88;;;5.72;;
78610;SDS011;67932;50.474;4.436;2023-02-28T05:49:08;9.73;;;5.82;;
78610;SDS011;67932;50.474;4.436;2023-02-28T05:51:34;10.98;;;5.90;;
78610;SDS011;67932;50.474;4.436;2023-02-28T05:54:04;10.55;;;5.88;;
78610;SDS011;67932;50.474;4.436;2023-02-28T05:56:30;10.45;;;6.95;;
78610;SDS011;67932;50.474;4.436;2023-02-28T05:58:57;12.38;;;6.13;;
78610;SDS011;67932;50.474;4.436;2023-02-28T06:03:49;16.50;;;6.03;;
78610;SDS011;67932;50.474;4.436;2023-02-28T06:06:15;13.65;;;6.05;;
78610;SDS011;67932;50.474;4.436;2023-02-28T06:11:09;8.63;;;5.47;;
78610;SDS011;67932;50.474;4.436;2023-02-28T06:13:36;11.75;;;6.13;;
78610;SDS011;67932;50.474;4.436;2023-02-28T06:16:02;10.05;;;6.25;;
78610;SDS011;67932;50.474;4.436;2023-02-28T06:18:28;11.88;;;6.40;;
78610;SDS011;67932;50.474;4.436;2023-02-28T06:20:54;9.48;;;5.95;;
78610;SDS011;67932;50.474;4.436;2023-02-28T06:23:21;10.82;;;6.28;;
78610;SDS011;67932;50.474;4.436;2023-02-28T06:25:47;13.05;;;6.28;;
78610;SDS011;67932;50.474;4.436;2023-02-28T06:28:14;10.80;;;6.05;;
78610;SDS011;67932;50.474;4.436;2023-02-28T06:30:40;13.25;;;6.95;;
78610;SDS011;67932;50.474;4.436;2023-02-28T06:33:06;11.77;;;6.40;;
78610;SDS011;67932;50.474;4.436;2023-02-28T06:35:32;9.13;;;6.00;;
78610;SDS011;67932;50.474;4.436;2023-02-28T06:40:24;9.18;;;5.75;;
78610;SDS011;67932;50.474;4.436;2023-02-28T06:42:51;12.65;;;7.25;;
78610;SDS011;67932;50.474;4.436;2023-02-28T06:45:17;10.82;;;6.25;;
78610;SDS011;67932;50.474;4.436;2023-02-28T06:47:43;10.80;;;5.93;;
78610;SDS011;67932;50.474;4.436;2023-02-28T06:52:36;11.27;;;6.20;;
78610;SDS011;67932;50.474;4.436;2023-02-28T06:55:03;7.65;;;5.55;;
78610;SDS011;67932;50.474;4.436;2023-02-28T06:57:30;11.50;;;6.72;;
78610;SDS011;67932;50.474;4.436;2023-02-28T07:00:00;12.68;;;6.78;;
78610;SDS011;67932;50.474;4.436;2023-02-28T07:02:26;11.48;;;6.75;;
78610;SDS011;67932;50.474;4.436;2023-02-28T07:04:52;12.15;;;7.28;;
78610;SDS011;67932;50.474;4.436;2023-02-28T07:07:18;13.48;;;6.78;;
78610;SDS011;67932;50.474;4.436;2023-02-28T07:09:44;8.30;;;6.20;;
78610;SDS011;67932;50.474;4.436;2023-02-28T07:12:10;11.20;;;7.10;;
78610;SDS011;67932;50.474;4.436;2023-02-28T07:14:36;10.40;;;6.90;;
78610;SDS011;67932;50.474;4.436;2023-02-28T07:19:29;9.40;;;5.57;;
78610;SDS011;67932;50.474;4.436;2023-02-28T07:24:21;10.50;;;6.40;;
78610;SDS011;67932;50.474;4.436;2023-02-28T07:26:50;11.43;;;6.30;;
78610;SDS011;67932;50.474;4.436;2023-02-28T07:29:16;10.18;;;6.65;;
78610;SDS011;67932;50.474;4.436;2023-02-28T07:31:42;11.73;;;7.03;;
78610;SDS011;67932;50.474;4.436;2023-02-28T07:34:08;9.88;;;6.88;;
78610;SDS011;67932;50.474;4.436;2023-02-28T07:36:34;13.35;;;6.93;;
78610;SDS011;67932;50.474;4.436;2023-02-28T07:39:00;10.60;;;6.68;;
78610;SDS011;67932;50.474;4.436;2023-02-28T07:41:27;11.98;;;6.35;;
78610;SDS011;67932;50.474;4.436;2023-02-28T07:43:54;13.00;;;7.63;;
78610;SDS011;67932;50.474;4.436;2023-02-28T07:46:22;10.50;;;6.85;;
78610;SDS011;67932;50.474;4.436;2023-02-28T07:48:48;10.63;;;6.65;;
78610;SDS011;67932;50.474;4.436;2023-02-28T07:53:40;11.70;;;6.22;;
78610;SDS011;67932;50.474;4.436;2023-02-28T07:58:32;8.63;;;5.45;;
78610;SDS011;67932;50.474;4.436;2023-02-28T08:01:04;12.88;;;6.70;;
78610;SDS011;67932;50.474;4.436;2023-02-28T08:03:31;10.52;;;6.35;;
78610;SDS011;67932;50.474;4.436;2023-02-28T08:05:57;12.45;;;6.78;;
78610;SDS011;67932;50.474;4.436;2023-02-28T08:08:23;12.93;;;7.40;;
78610;SDS011;67932;50.474;4.436;2023-02-28T08:10:57;11.57;;;6.43;;
78610;SDS011;67932;50.474;4.436;2023-02-28T08:13:23;13.02;;;6.78;;
78610;SDS011;67932;50.474;4.436;2023-02-28T08:18:15;8.63;;;5.80;;
78610;SDS011;67932;50.474;4.436;2023-02-28T08:23:07;11.07;;;5.82;;
78610;SDS011;67932;50.474;4.436;2023-02-28T08:25:33;9.40;;;5.80;;
78610;SDS011;67932;50.474;4.436;2023-02-28T08:27:59;8.55;;;5.70;;
78610;SDS011;67932;50.474;4.436;2023-02-28T08:32:51;8.80;;;5.95;;
78610;SDS011;67932;50.474;4.436;2023-02-28T08:37:43;9.25;;;5.55;;
78610;SDS011;67932;50.474;4.436;2023-02-28T08:42:38;9.35;;;5.03;;
78610;SDS011;67932;50.474;4.436;2023-02-28T08:45:04;12.27;;;6.40;;
78610;SDS011;67932;50.474;4.436;2023-02-28T08:47:31;11.30;;;5.68;;
78610;SDS011;67932;50.474;4.436;2023-02-28T08:49:57;13.05;;;6.35;;
78610;SDS011;67932;50.474;4.436;2023-02-28T08:54:49;8.30;;;5.85;;
78610;SDS011;67932;50.474;4.436;2023-02-28T08:59:41;9.60;;;4.70;;
78610;SDS011;67932;50.474;4.436;2023-02-28T09:04:33;11.15;;;5.90;;
78610;SDS011;67932;50.474;4.436;2023-02-28T09:06:59;12.60;;;9.73;;
78610;SDS011;67932;50.474;4.436;2023-02-28T09:11:51;7.63;;;5.35;;
78610;SDS011;67932;50.474;4.436;2023-02-28T09:16:44;9.43;;;4.68;;
78610;SDS011;67932;50.474;4.436;2023-02-28T09:21:39;9.07;;;5.10;;
78610;SDS011;67932;50.474;4.436;2023-02-28T09:24:05;9.45;;;5.75;;
78610;SDS011;67932;50.474;4.436;2023-02-28T09:26:32;8.05;;;4.80;;
78610;SDS011;67932;50.474;4.436;2023-02-28T09:28:59;10.88;;;5.15;;
78610;SDS011;67932;50.474;4.436;2023-02-28T09:31:26;6.03;;;4.85;;
78610;SDS011;67932;50.474;4.436;2023-02-28T09:33:53;6.72;;;4.13;;
78610;SDS011;67932;50.474;4.436;2023-02-28T09:36:20;9.75;;;4.35;;
78610;SDS011;67932;50.474;4.436;2023-02-28T09:38:46;8.98;;;4.38;;
78610;SDS011;67932;50.474;4.436;2023-02-28T09:41:13;9.02;;;3.90;;
78610;SDS011;67932;50.474;4.436;2023-02-28T09:43:41;5.70;;;4.30;;
78610;SDS011;67932;50.474;4.436;2023-02-28T09:46:14;8.65;;;4.18;;
78610;SDS011;67932;50.474;4.436;2023-02-28T09:48:44;6.40;;;3.97;;
78610;SDS011;67932;50.474;4.436;2023-02-28T09:51:14;5.88;;;3.53;;
78610;SDS011;67932;50.474;4.436;2023-02-28T09:53:42;6.25;;;4.40;;
78610;SDS011;67932;50.474;4.436;2023-02-28T09:56:12;5.03;;;3.25;;
78610;SDS011;67932;50.474;4.436;2023-02-28T09:58:54;5.80;;;3.42;;
78610;SDS011;67932;50.474;4.436;2023-02-28T10:01:28;5.45;;;3.45;;
78610;SDS011;67932;50.474;4.436;2023-02-28T10:06:30;5.05;;;3.60;;
78610;SDS011;67932;50.474;4.436;2023-02-28T10:11:28;4.10;;;3.45;;
78610;SDS011;67932;50.474;4.436;2023-02-28T10:19:14;4.95;;;2.95;;
78610;SDS011;67932;50.474;4.436;2023-02-28T10:21:53;6.25;;;3.60;;
78610;SDS011;67932;50.474;4.436;2023-02-28T10:26:47;7.32;;;3.20;;
78610;SDS011;67932;50.474;4.436;2023-02-28T10:29:13;4.32;;;3.40;;
78610;SDS011;67932;50.474;4.436;2023-02-28T10:31:40;6.35;;;3.47;;
78610;SDS011;67932;50.474;4.436;2023-02-28T10:34:07;5.65;;;3.70;;
78610;SDS011;67932;50.474;4.436;2023-02-28T10:36:33;6.65;;;3.28;;
78610;SDS011;67932;50.474;4.436;2023-02-28T10:38:59;5.05;;;3.75;;
78610;SDS011;67932;50.474;4.436;2023-02-28T10:41:30;9.75;;;3.47;;
78610;SDS011;67932;50.474;4.436;2023-02-28T10:46:45;7.13;;;3.65;;
78610;SDS011;67932;50.474;4.436;2023-02-28T10:49:22;6.00;;;3.72;;
78610;SDS011;67932;50.474;4.436;2023-02-28T10:51:49;4.55;;;3.28;;
78610;SDS011;67932;50.474;4.436;2023-02-28T10:54:22;4.45;;;3.13;;
78610;SDS011;67932;50.474;4.436;2023-02-28T10:59:34;6.53;;;3.33;;
78610;SDS011;67932;50.474;4.436;2023-02-28T11:02:00;4.43;;;3.45;;
78610;SDS011;67932;50.474;4.436;2023-02-28T11:11:55;4.15;;;2.72;;
78610;SDS011;67932;50.474;4.436;2023-02-28T11:14:23;3.25;;;2.50;;
78610;SDS011;67932;50.474;4.436;2023-02-28T11:16:50;3.30;;;2.65;;
78610;SDS011;67932;50.474;4.436;2023-02-28T11:19:31;4.68;;;2.80;;
78610;SDS011;67932;50.474;4.436;2023-02-28T11:22:01;3.63;;;2.92;;
78610;SDS011;67932;50.474;4.436;2023-02-28T11:24:28;3.60;;;2.83;;
78610;SDS011;67932;50.474;4.436;2023-02-28T11:26:55;6.53;;;3.08;;
78610;SDS011;67932;50.474;4.436;2023-02-28T11:29:29;4.70;;;3.00;;
78610;SDS011;67932;50.474;4.436;2023-02-28T11:36:54;4.13;;;2.40;;
78610;SDS011;67932;50.474;4.436;2023-02-28T11:39:22;10.02;;;2.90;;
78610;SDS011;67932;50.474;4.436;2023-02-28T11:42:04;3.60;;;2.25;;
78610;SDS011;67932;50.474;4.436;2023-02-28T11:52:02;3.17;;;2.55;;
78610;SDS011;67932;50.474;4.436;2023-02-28T11:57:24;8.02;;;2.78;;
78610;SDS011;67932;50.474;4.436;2023-02-28T12:10:33;4.93;;;2.85;;
78610;SDS011;67932;50.474;4.436;2023-02-28T12:20:53;2.97;;;2.40;;
78610;SDS011;67932;50.474;4.436;2023-02-28T12:26:07;3.53;;;2.50;;
78610;SDS011;67932;50.474;4.436;2023-02-28T12:28:53;3.97;;;2.75;;
78610;SDS011;67932;50.474;4.436;2023-02-28T12:31:20;4.00;;;2.45;;
78610;SDS011;67932;50.474;4.436;2023-02-28T12:33:48;3.53;;;2.80;;
78610;SDS011;67932;50.474;4.436;2023-02-28T12:36:16;3.65;;;2.83;;
78610;SDS011;67932;50.474;4.436;2023-02-28T12:41:14;4.93;;;2.80;;
78610;SDS011;67932;50.474;4.436;2023-02-28T12:46:10;4.10;;;2.58;;
78610;SDS011;67932;50.474;4.436;2023-02-28T12:51:03;2.88;;;2.42;;
78610;SDS011;67932;50.474;4.436;2023-02-28T12:59:01;4.10;;;2.42;;
78610;SDS011;67932;50.474;4.436;2023-02-28T13:11:38;3.13;;;2.22;;
78610;SDS011;67932;50.474;4.436;2023-02-28T13:14:05;6.32;;;2.83;;
78610;SDS011;67932;50.474;4.436;2023-02-28T13:19:17;3.20;;;2.42;;
78610;SDS011;67932;50.474;4.436;2023-02-28T13:21:44;3.88;;;2.67;;
78610;SDS011;67932;50.474;4.436;2023-02-28T13:24:11;3.92;;;2.70;;
78610;SDS011;67932;50.474;4.436;2023-02-28T13:34:22;4.18;;;2.72;;
78610;SDS011;67932;50.474;4.436;2023-02-28T13:36:48;3.92;;;2.55;;
78610;SDS011;67932;50.474;4.436;2023-02-28T13:42:12;3.00;;;2.25;;
78610;SDS011;67932;50.474;4.436;2023-02-28T13:45:30;4.00;;;2.50;;
78610;SDS011;67932;50.474;4.436;2023-02-28T13:50:36;3.45;;;2.55;;
78610;SDS011;67932;50.474;4.436;2023-02-28T14:11:39;3.58;;;2.40;;
78610;SDS011;67932;50.474;4.436;2023-02-28T14:14:06;3.83;;;2.50;;
78610;SDS011;67932;50.474;4.436;2023-02-28T14:16:46;3.78;;;2.20;;
78610;SDS011;67932;50.474;4.436;2023-02-28T14:19:21;3.60;;;2.53;;
78610;SDS011;67932;50.474;4.436;2023-02-28T14:21:58;2.67;;;1.92;;
78610;SDS011;67932;50.474;4.436;2023-02-28T14:32:15;3.38;;;2.33;;
78610;SDS011;67932;50.474;4.436;2023-02-28T14:37:30;2.80;;;2.25;;
78610;SDS011;67932;50.474;4.436;2023-02-28T14:39:57;3.55;;;2.40;;
78610;SDS011;67932;50.474;4.436;2023-02-28T14:42:32;2.80;;;2.25;;
78610;SDS011;67932;50.474;4.436;2023-02-28T14:44:58;3.03;;;2.15;;
78610;SDS011;67932;50.474;4.436;2023-02-28T14:47:27;3.83;;;2.35;;
78610;SDS011;67932;50.474;4.436;2023-02-28T14:49:53;3.17;;;2.30;;
78610;SDS011;67932;50.474;4.436;2023-02-28T14:52:24;4.30;;;2.28;;
78610;SDS011;67932;50.474;4.436;2023-02-28T14:54:53;3.63;;;2.63;;
78610;SDS011;67932;50.474;4.436;2023-02-28T14:57:23;5.25;;;2.53;;
78610;SDS011;67932;50.474;4.436;2023-02-28T15:00:02;4.78;;;2.70;;
78610;SDS011;67932;50.474;4.436;2023-02-28T15:02:34;4.55;;;2.55;;
78610;SDS011;67932;50.474;4.436;2023-02-28T15:05:22;4.03;;;2.95;;
78610;SDS011;67932;50.474;4.436;2023-02-28T15:07:47;2.50;;;2.20;;
78610;SDS011;67932;50.474;4.436;2023-02-28T15:10:21;2.45;;;2.17;;
78610;SDS011;67932;50.474;4.436;2023-02-28T15:13:10;3.42;;;2.72;;
78610;SDS011;67932;50.474;4.436;2023-02-28T15:15:47;4.32;;;3.10;;
78610;SDS011;67932;50.474;4.436;2023-02-28T15:18:16;4.78;;;2.65;;
78610;SDS011;67932;50.474;4.436;2023-02-28T15:20:44;3.92;;;2.53;;
78610;SDS011;67932;50.474;4.436;2023-02-28T15:23:10;3.67;;;2.90;;
78610;SDS011;67932;50.474;4.436;2023-02-28T15:25:37;3.45;;;2.75;;
78610;SDS011;67932;50.474;4.436;2023-02-28T15:28:03;5.05;;;3.28;;
78610;SDS011;67932;50.474;4.436;2023-02-28T15:30:30;2.97;;;2.60;;
78610;SDS011;67932;50.474;4.436;2023-02-28T15:35:34;3.45;;;2.53;;
78610;SDS011;67932;50.474;4.436;2023-02-28T15:38:01;3.90;;;2.53;;
78610;SDS011;67932;50.474;4.436;2023-02-28T15:40:32;6.50;;;3.00;;
78610;SDS011;67932;50.474;4.436;2023-02-28T15:48:13;3.97;;;3.25;;
78610;SDS011;67932;50.474;4.436;2023-02-28T15:50:41;4.45;;;2.80;;
78610;SDS011;67932;50.474;4.436;2023-02-28T15:53:14;5.22;;;2.85;;
78610;SDS011;67932;50.474;4.436;2023-02-28T15:55:41;4.78;;;3.00;;
78610;SDS011;67932;50.474;4.436;2023-02-28T15:58:08;3.63;;;2.88;;
78610;SDS011;67932;50.474;4.436;2023-02-28T16:00:36;4.32;;;2.78;;
78610;SDS011;67932;50.474;4.436;2023-02-28T16:03:22;4.32;;;3.10;;
78610;SDS011;67932;50.474;4.436;2023-02-28T16:06:06;5.20;;;3.42;;
78610;SDS011;67932;50.474;4.436;2023-02-28T16:08:32;3.30;;;2.70;;
78610;SDS011;67932;50.474;4.436;2023-02-28T16:10:58;4.10;;;2.97;;
78610;SDS011;67932;50.474;4.436;2023-02-28T16:13:24;4.72;;;3.20;;
78610;SDS011;67932;50.474;4.436;2023-02-28T16:15:50;4.78;;;3.28;;
78610;SDS011;67932;50.474;4.436;2023-02-28T16:18:16;3.70;;;3.13;;
78610;SDS011;67932;50.474;4.436;2023-02-28T16:20:42;3.35;;;2.90;;
78610;SDS011;67932;50.474;4.436;2023-02-28T16:23:09;5.30;;;3.28;;
78610;SDS011;67932;50.474;4.436;2023-02-28T16:25:39;4.90;;;2.67;;
78610;SDS011;67932;50.474;4.436;2023-02-28T16:28:08;3.60;;;2.58;;
78610;SDS011;67932;50.474;4.436;2023-02-28T16:33:04;2.85;;;2.55;;
78610;SDS011;67932;50.474;4.436;2023-02-28T16:35:30;6.32;;;2.88;;
78610;SDS011;67932;50.474;4.436;2023-02-28T16:37:56;5.05;;;3.00;;
78610;SDS011;67932;50.474;4.436;2023-02-28T16:40:23;4.75;;;3.30;;
78610;SDS011;67932;50.474;4.436;2023-02-28T16:42:50;5.50;;;3.28;;
78610;SDS011;67932;50.474;4.436;2023-02-28T16:45:24;4.90;;;2.85;;
78610;SDS011;67932;50.474;4.436;2023-02-28T16:47:51;4.45;;;2.90;;
78610;SDS011;67932;50.474;4.436;2023-02-28T16:50:19;3.92;;;2.75;;
78610;SDS011;67932;50.474;4.436;2023-02-28T16:52:46;9.95;;;4.18;;
78610;SDS011;67932;50.474;4.436;2023-02-28T16:55:13;4.20;;;2.78;;
78610;SDS011;67932;50.474;4.436;2023-02-28T16:57:41;5.43;;;3.15;;
78610;SDS011;67932;50.474;4.436;2023-02-28T17:00:11;6.03;;;3.00;;
78610;SDS011;67932;50.474;4.436;2023-02-28T17:02:38;4.35;;;2.90;;
78610;SDS011;67932;50.474;4.436;2023-02-28T17:05:04;4.45;;;2.95;;
78610;SDS011;67932;50.474;4.436;2023-02-28T17:07:31;4.85;;;3.15;;
78610;SDS011;67932;50.474;4.436;2023-02-28T17:09:57;6.40;;;3.65;;
78610;SDS011;67932;50.474;4.436;2023-02-28T17:12:26;6.97;;;3.10;;
78610;SDS011;67932;50.474;4.436;2023-02-28T17:14:52;4.85;;;2.95;;
78610;SDS011;67932;50.474;4.436;2023-02-28T17:17:20;4.32;;;2.95;;
78610;SDS011;67932;50.474;4.436;2023-02-28T17:19:46;4.90;;;3.00;;
78610;SDS011;67932;50.474;4.436;2023-02-28T17:22:13;4.30;;;3.40;;
78610;SDS011;67932;50.474;4.436;2023-02-28T17:24:39;7.90;;;3.40;;
78610;SDS011;67932;50.474;4.436;2023-02-28T17:27:05;4.78;;;3.50;;
78610;SDS011;67932;50.474;4.436;2023-02-28T17:29:33;6.25;;;3.55;;
78610;SDS011;67932;50.474;4.436;2023-02-28T17:31:59;5.63;;;3.67;;
78610;SDS011;67932;50.474;4.436;2023-02-28T17:34:25;6.50;;;3.40;;
78610;SDS011;67932;50.474;4.436;2023-02-28T17:36:51;6.28;;;3.58;;
78610;SDS011;67932;50.474;4.436;2023-02-28T17:39:18;5.53;;;3.60;;
78610;SDS011;67932;50.474;4.436;2023-02-28T17:41:54;4.88;;;3.78;;
78610;SDS011;67932;50.474;4.436;2023-02-28T17:44:21;6.07;;;4.00;;
78610;SDS011;67932;50.474;4.436;2023-02-28T17:46:48;7.18;;;4.07;;
78610;SDS011;67932;50.474;4.436;2023-02-28T17:49:14;5.72;;;4.20;;
78610;SDS011;67932;50.474;4.436;2023-02-28T17:51:40;5.65;;;3.53;;
78610;SDS011;67932;50.474;4.436;2023-02-28T17:54:06;6.93;;;4.03;;
78610;SDS011;67932;50.474;4.436;2023-02-28T17:56:32;7.03;;;4.25;;
78610;SDS011;67932;50.474;4.436;2023-02-28T17:58:59;7.95;;;3.90;;
78610;SDS011;67932;50.474;4.436;2023-02-28T18:01:25;6.80;;;3.75;;
78610;SDS011;67932;50.474;4.436;2023-02-28T18:03:51;6.40;;;3.78;;
78610;SDS011;67932;50.474;4.436;2023-02-28T18:08:44;8.38;;;4.30;;
78610;SDS011;67932;50.474;4.436;2023-02-28T18:11:10;7.95;;;3.58;;
78610;SDS011;67932;50.474;4.436;2023-02-28T18:13:43;6.72;;;3.50;;
78610;SDS011;67932;50.474;4.436;2023-02-28T18:16:09;6.32;;;3.38;;
78610;SDS011;67932;50.474;4.436;2023-02-28T18:18:35;5.72;;;3.47;;
78610;SDS011;67932;50.474;4.436;2023-02-28T18:21:03;7.13;;;3.80;;
78610;SDS011;67932;50.474;4.436;2023-02-28T18:23:30;5.88;;;3.50;;
78610;SDS011;67932;50.474;4.436;2023-02-28T18:25:56;8.45;;;3.92;;
78610;SDS011;67932;50.474;4.436;2023-02-28T18:28:23;8.30;;;3.75;;
78610;SDS011;67932;50.474;4.436;2023-02-28T18:30:49;7.80;;;3.40;;
78610;SDS011;67932;50.474;4.436;2023-02-28T18:33:15;5.47;;;3.80;;
78610;SDS011;67932;50.474;4.436;2023-02-28T18:35:41;5.45;;;4.22;;
78610;SDS011;67932;50.474;4.436;2023-02-28T18:38:15;6.30;;;3.53;;
78610;SDS011;67932;50.474;4.436;2023-02-28T18:40:48;8.45;;;4.82;;
78610;SDS011;67932;50.474;4.436;2023-02-28T18:43:16;9.75;;;4.05;;
78610;SDS011;67932;50.474;4.436;2023-02-28T18:45:42;6.85;;;4.13;;
78610;SDS011;67932;50.474;4.436;2023-02-28T18:48:08;9.38;;;4.22;;
78610;SDS011;67932;50.474;4.436;2023-02-28T18:50:36;5.00;;;3.65;;
78610;SDS011;67932;50.474;4.436;2023-02-28T18:53:02;7.05;;;4.55;;
78610;SDS011;67932;50.474;4.436;2023-02-28T18:55:30;8.63;;;4.38;;
78610;SDS011;67932;50.474;4.436;2023-02-28T18:57:56;8.50;;;4.18;;
78610;SDS011;67932;50.474;4.436;2023-02-28T19:00:22;6.88;;;3.50;;
78610;SDS011;67932;50.474;4.436;2023-02-28T19:02:50;5.90;;;3.75;;
78610;SDS011;67932;50.474;4.436;2023-02-28T19:05:16;4.85;;;3.45;;
78610;SDS011;67932;50.474;4.436;2023-02-28T19:07:43;5.88;;;4.22;;
78610;SDS011;67932;50.474;4.436;2023-02-28T19:10:09;8.30;;;3.92;;
78610;SDS011;67932;50.474;4.436;2023-02-28T19:12:36;5.82;;;4.28;;
78610;SDS011;67932;50.474;4.436;2023-02-28T19:15:03;7.70;;;3.78;;
78610;SDS011;67932;50.474;4.436;2023-02-28T19:17:29;6.43;;;3.78;;
78610;SDS011;67932;50.474;4.436;2023-02-28T19:19:56;6.15;;;3.67;;